sensor_id;sensor_type;location;lat;lon;timestamp;P1;durP1;ratioP1;P2;durP2;ratioP2
66012;SDS011;52783;50.502;8.190;2023-09-12T00:00:57;15.05;;;5.93;;
66012;SDS011;52783;50.502;8.190;2023-09-12T00:03:23;16.52;;;5.10;;
66012;SDS011;52783;50.502;8.190;2023-09-12T00:05:56;26.05;;;5.85;;
66012;SDS011;52783;50.502;8.190;2023-09-12T00:08:22;20.40;;;6.07;;
66012;SDS011;52783;50.502;8.190;2023-09-12T00:10:59;15.00;;;5.82;;
66012;SDS011;52783;50.502;8.190;2023-09-12T00:13:35;16.20;;;5.40;;
66012;SDS011;52783;50.502;8.190;2023-09-12T00:16:01;27.83;;;5.78;;
66012;SDS011;52783;50.502;8.190;2023-09-12T00:18:26;25.45;;;6.40;;
66012;SDS011;52783;50.502;8.190;2023-09-12T00:20:52;14.23;;;5.35;;
66012;SDS011;52783;50.502;8.190;2023-09-12T00:23:18;18.25;;;6.13;;
66012;SDS011;52783;50.502;8.190;2023-09-12T00:25:45;19.17;;;5.43;;
66012;SDS011;52783;50.502;8.190;2023-09-12T00:28:10;19.67;;;5.97;;
66012;SDS011;52783;50.502;8.190;2023-09-12T00:30:36;13.63;;;6.15;;
66012;SDS011;52783;50.502;8.190;2023-09-12T00:33:01;17.58;;;6.05;;
66012;SDS011;52783;50.502;8.190;2023-09-12T00:35:27;17.35;;;5.78;;
66012;SDS011;52783;50.502;8.190;2023-09-12T00:37:52;17.52;;;5.43;;
66012;SDS011;52783;50.502;8.190;2023-09-12T00:40:18;15.00;;;5.40;;
66012;SDS011;52783;50.502;8.190;2023-09-12T00:42:43;17.25;;;5.68;;
66012;SDS011;52783;50.502;8.190;2023-09-12T00:45:09;23.98;;;5.95;;
66012;SDS011;52783;50.502;8.190;2023-09-12T00:47:35;16.00;;;5.35;;
66012;SDS011;52783;50.502;8.190;2023-09-12T00:50:01;18.77;;;6.18;;
66012;SDS011;52783;50.502;8.190;2023-09-12T00:52:29;15.38;;;5.47;;
66012;SDS011;52783;50.502;8.190;2023-09-12T00:54:58;21.00;;;6.20;;
66012;SDS011;52783;50.502;8.190;2023-09-12T00:57:23;17.30;;;6.30;;
66012;SDS011;52783;50.502;8.190;2023-09-12T00:59:49;24.15;;;6.90;;
66012;SDS011;52783;50.502;8.190;2023-09-12T01:02:17;16.23;;;6.20;;
66012;SDS011;52783;50.502;8.190;2023-09-12T01:04:44;21.77;;;6.93;;
66012;SDS011;52783;50.502;8.190;2023-09-12T01:07:10;18.42;;;6.15;;
66012;SDS011;52783;50.502;8.190;2023-09-12T01:09:35;21.67;;;6.30;;
66012;SDS011;52783;50.502;8.190;2023-09-12T01:12:01;19.90;;;5.57;;
66012;SDS011;52783;50.502;8.190;2023-09-12T01:14:28;19.45;;;6.18;;
66012;SDS011;52783;50.502;8.190;2023-09-12T01:16:57;16.50;;;6.30;;
66012;SDS011;52783;50.502;8.190;2023-09-12T01:19:23;20.95;;;5.70;;
66012;SDS011;52783;50.502;8.190;2023-09-12T01:24:40;18.92;;;6.05;;
66012;SDS011;52783;50.502;8.190;2023-09-12T01:27:32;21.13;;;5.82;;
66012;SDS011;52783;50.502;8.190;2023-09-12T01:30:07;28.13;;;7.55;;
66012;SDS011;52783;50.502;8.190;2023-09-12T01:32:35;14.95;;;6.40;;
66012;SDS011;52783;50.502;8.190;2023-09-12T01:35:01;23.05;;;6.03;;
66012;SDS011;52783;50.502;8.190;2023-09-12T01:37:32;15.35;;;6.78;;
66012;SDS011;52783;50.502;8.190;2023-09-12T01:39:58;20.50;;;6.13;;
66012;SDS011;52783;50.502;8.190;2023-09-12T01:42:23;23.23;;;6.88;;
66012;SDS011;52783;50.502;8.190;2023-09-12T01:44:54;20.30;;;5.97;;
66012;SDS011;52783;50.502;8.190;2023-09-12T01:47:21;28.30;;;6.45;;
66012;SDS011;52783;50.502;8.190;2023-09-12T01:49:49;18.73;;;5.90;;
66012;SDS011;52783;50.502;8.190;2023-09-12T01:52:18;19.08;;;6.13;;
66012;SDS011;52783;50.502;8.190;2023-09-12T01:54:44;16.77;;;5.95;;
66012;SDS011;52783;50.502;8.190;2023-09-12T01:57:12;15.45;;;6.13;;
66012;SDS011;52783;50.502;8.190;2023-09-12T01:59:38;13.02;;;5.47;;
66012;SDS011;52783;50.502;8.190;2023-09-12T02:02:04;16.30;;;6.57;;
66012;SDS011;52783;50.502;8.190;2023-09-12T02:04:29;19.77;;;5.88;;
66012;SDS011;52783;50.502;8.190;2023-09-12T02:06:55;16.40;;;5.88;;
66012;SDS011;52783;50.502;8.190;2023-09-12T02:09:20;23.45;;;6.10;;
66012;SDS011;52783;50.502;8.190;2023-09-12T02:11:46;19.55;;;5.93;;
66012;SDS011;52783;50.502;8.190;2023-09-12T02:14:13;12.45;;;6.03;;
66012;SDS011;52783;50.502;8.190;2023-09-12T02:16:38;23.92;;;5.70;;
66012;SDS011;52783;50.502;8.190;2023-09-12T02:19:04;17.50;;;6.45;;
66012;SDS011;52783;50.502;8.190;2023-09-12T02:21:31;15.80;;;6.20;;
66012;SDS011;52783;50.502;8.190;2023-09-12T02:23:56;19.70;;;5.95;;
66012;SDS011;52783;50.502;8.190;2023-09-12T02:26:22;20.50;;;6.97;;
66012;SDS011;52783;50.502;8.190;2023-09-12T02:28:47;19.00;;;6.28;;
66012;SDS011;52783;50.502;8.190;2023-09-12T02:31:13;16.88;;;6.05;;
66012;SDS011;52783;50.502;8.190;2023-09-12T02:33:38;23.88;;;6.60;;
66012;SDS011;52783;50.502;8.190;2023-09-12T02:36:04;20.13;;;6.38;;
66012;SDS011;52783;50.502;8.190;2023-09-12T02:38:30;18.40;;;6.47;;
66012;SDS011;52783;50.502;8.190;2023-09-12T02:40:56;29.75;;;7.05;;
66012;SDS011;52783;50.502;8.190;2023-09-12T02:43:21;20.77;;;6.47;;
66012;SDS011;52783;50.502;8.190;2023-09-12T02:45:47;23.75;;;6.90;;
66012;SDS011;52783;50.502;8.190;2023-09-12T02:48:12;25.70;;;6.57;;
66012;SDS011;52783;50.502;8.190;2023-09-12T02:50:38;16.83;;;6.32;;
66012;SDS011;52783;50.502;8.190;2023-09-12T02:53:03;28.13;;;6.03;;
66012;SDS011;52783;50.502;8.190;2023-09-12T02:55:29;22.35;;;6.60;;
66012;SDS011;52783;50.502;8.190;2023-09-12T02:57:54;17.80;;;6.05;;
66012;SDS011;52783;50.502;8.190;2023-09-12T03:00:20;14.18;;;6.22;;
66012;SDS011;52783;50.502;8.190;2023-09-12T03:02:46;16.27;;;6.18;;
66012;SDS011;52783;50.502;8.190;2023-09-12T03:05:12;12.90;;;6.15;;
66012;SDS011;52783;50.502;8.190;2023-09-12T03:07:37;20.73;;;6.22;;
66012;SDS011;52783;50.502;8.190;2023-09-12T03:10:03;27.08;;;6.75;;
66012;SDS011;52783;50.502;8.190;2023-09-12T03:12:28;14.90;;;6.20;;
66012;SDS011;52783;50.502;8.190;2023-09-12T03:14:54;17.75;;;6.35;;
66012;SDS011;52783;50.502;8.190;2023-09-12T03:17:20;15.30;;;6.38;;
66012;SDS011;52783;50.502;8.190;2023-09-12T03:19:45;13.82;;;6.20;;
66012;SDS011;52783;50.502;8.190;2023-09-12T03:22:11;21.27;;;6.78;;
66012;SDS011;52783;50.502;8.190;2023-09-12T03:24:36;20.23;;;6.63;;
66012;SDS011;52783;50.502;8.190;2023-09-12T03:27:02;16.42;;;6.45;;
66012;SDS011;52783;50.502;8.190;2023-09-12T03:29:28;17.65;;;6.70;;
66012;SDS011;52783;50.502;8.190;2023-09-12T03:31:53;13.23;;;6.70;;
66012;SDS011;52783;50.502;8.190;2023-09-12T03:34:19;22.95;;;6.40;;
66012;SDS011;52783;50.502;8.190;2023-09-12T03:36:44;22.25;;;6.68;;
66012;SDS011;52783;50.502;8.190;2023-09-12T03:39:09;18.48;;;5.68;;
66012;SDS011;52783;50.502;8.190;2023-09-12T03:41:38;22.92;;;6.47;;
66012;SDS011;52783;50.502;8.190;2023-09-12T03:44:04;19.10;;;6.97;;
66012;SDS011;52783;50.502;8.190;2023-09-12T03:46:29;20.50;;;6.32;;
66012;SDS011;52783;50.502;8.190;2023-09-12T03:48:55;21.25;;;7.60;;
66012;SDS011;52783;50.502;8.190;2023-09-12T03:51:20;20.23;;;6.32;;
66012;SDS011;52783;50.502;8.190;2023-09-12T03:53:46;20.25;;;6.78;;
66012;SDS011;52783;50.502;8.190;2023-09-12T03:56:12;29.20;;;7.20;;
66012;SDS011;52783;50.502;8.190;2023-09-12T03:58:39;19.58;;;6.65;;
66012;SDS011;52783;50.502;8.190;2023-09-12T04:01:05;19.67;;;6.40;;
66012;SDS011;52783;50.502;8.190;2023-09-12T04:03:30;17.33;;;7.03;;
66012;SDS011;52783;50.502;8.190;2023-09-12T04:05:56;22.52;;;7.13;;
66012;SDS011;52783;50.502;8.190;2023-09-12T04:08:21;21.58;;;6.55;;
66012;SDS011;52783;50.502;8.190;2023-09-12T04:10:47;31.58;;;6.63;;
66012;SDS011;52783;50.502;8.190;2023-09-12T04:13:12;17.40;;;6.40;;
66012;SDS011;52783;50.502;8.190;2023-09-12T04:15:38;14.15;;;6.50;;
66012;SDS011;52783;50.502;8.190;2023-09-12T04:18:04;24.25;;;6.82;;
66012;SDS011;52783;50.502;8.190;2023-09-12T04:20:30;19.45;;;6.53;;
66012;SDS011;52783;50.502;8.190;2023-09-12T04:22:55;17.75;;;5.93;;
66012;SDS011;52783;50.502;8.190;2023-09-12T04:25:21;22.08;;;7.72;;
66012;SDS011;52783;50.502;8.190;2023-09-12T04:27:46;25.02;;;6.93;;
66012;SDS011;52783;50.502;8.190;2023-09-12T04:30:12;22.45;;;6.80;;
66012;SDS011;52783;50.502;8.190;2023-09-12T04:32:37;19.95;;;6.70;;
66012;SDS011;52783;50.502;8.190;2023-09-12T04:35:03;15.10;;;6.82;;
66012;SDS011;52783;50.502;8.190;2023-09-12T04:37:29;21.85;;;6.50;;
66012;SDS011;52783;50.502;8.190;2023-09-12T04:39:54;18.42;;;6.75;;
66012;SDS011;52783;50.502;8.190;2023-09-12T04:42:21;21.00;;;6.88;;
66012;SDS011;52783;50.502;8.190;2023-09-12T04:44:46;21.67;;;7.03;;
66012;SDS011;52783;50.502;8.190;2023-09-12T04:47:12;17.35;;;6.22;;
66012;SDS011;52783;50.502;8.190;2023-09-12T04:49:38;13.23;;;6.32;;
66012;SDS011;52783;50.502;8.190;2023-09-12T04:52:04;14.88;;;6.38;;
66012;SDS011;52783;50.502;8.190;2023-09-12T04:54:31;17.13;;;6.65;;
66012;SDS011;52783;50.502;8.190;2023-09-12T04:56:56;20.88;;;7.22;;
66012;SDS011;52783;50.502;8.190;2023-09-12T04:59:22;15.85;;;7.03;;
66012;SDS011;52783;50.502;8.190;2023-09-12T05:01:47;16.58;;;6.25;;
66012;SDS011;52783;50.502;8.190;2023-09-12T05:04:13;20.40;;;7.10;;
66012;SDS011;52783;50.502;8.190;2023-09-12T05:06:38;21.73;;;6.70;;
66012;SDS011;52783;50.502;8.190;2023-09-12T05:09:05;15.52;;;6.45;;
66012;SDS011;52783;50.502;8.190;2023-09-12T05:11:31;17.75;;;6.68;;
66012;SDS011;52783;50.502;8.190;2023-09-12T05:13:56;28.00;;;7.30;;
66012;SDS011;52783;50.502;8.190;2023-09-12T05:16:22;15.60;;;6.78;;
66012;SDS011;52783;50.502;8.190;2023-09-12T05:18:47;18.00;;;6.43;;
66012;SDS011;52783;50.502;8.190;2023-09-12T05:21:14;23.67;;;7.55;;
66012;SDS011;52783;50.502;8.190;2023-09-12T05:23:40;19.67;;;7.18;;
66012;SDS011;52783;50.502;8.190;2023-09-12T05:26:05;19.95;;;7.15;;
66012;SDS011;52783;50.502;8.190;2023-09-12T05:28:31;16.17;;;6.63;;
66012;SDS011;52783;50.502;8.190;2023-09-12T05:30:57;17.70;;;7.15;;
66012;SDS011;52783;50.502;8.190;2023-09-12T05:33:22;23.23;;;7.03;;
66012;SDS011;52783;50.502;8.190;2023-09-12T05:35:48;20.38;;;7.40;;
66012;SDS011;52783;50.502;8.190;2023-09-12T05:38:13;18.25;;;7.72;;
66012;SDS011;52783;50.502;8.190;2023-09-12T05:40:39;20.23;;;6.63;;
66012;SDS011;52783;50.502;8.190;2023-09-12T05:43:04;17.23;;;7.13;;
66012;SDS011;52783;50.502;8.190;2023-09-12T05:45:30;16.02;;;7.15;;
66012;SDS011;52783;50.502;8.190;2023-09-12T05:47:57;19.38;;;7.28;;
66012;SDS011;52783;50.502;8.190;2023-09-12T05:50:23;21.80;;;7.75;;
66012;SDS011;52783;50.502;8.190;2023-09-12T05:52:49;13.07;;;6.78;;
66012;SDS011;52783;50.502;8.190;2023-09-12T05:55:14;26.20;;;7.40;;
66012;SDS011;52783;50.502;8.190;2023-09-12T05:57:41;15.82;;;6.85;;
66012;SDS011;52783;50.502;8.190;2023-09-12T06:00:06;16.77;;;6.00;;
66012;SDS011;52783;50.502;8.190;2023-09-12T06:02:36;22.48;;;6.70;;
66012;SDS011;52783;50.502;8.190;2023-09-12T06:05:05;32.92;;;6.95;;
66012;SDS011;52783;50.502;8.190;2023-09-12T06:07:31;19.20;;;6.35;;
66012;SDS011;52783;50.502;8.190;2023-09-12T06:09:57;21.42;;;5.78;;
66012;SDS011;52783;50.502;8.190;2023-09-12T06:12:23;17.77;;;6.05;;
66012;SDS011;52783;50.502;8.190;2023-09-12T06:14:48;21.05;;;6.20;;
66012;SDS011;52783;50.502;8.190;2023-09-12T06:17:14;17.52;;;6.38;;
66012;SDS011;52783;50.502;8.190;2023-09-12T06:19:39;33.97;;;5.68;;
66012;SDS011;52783;50.502;8.190;2023-09-12T06:22:05;17.67;;;5.82;;
66012;SDS011;52783;50.502;8.190;2023-09-12T06:24:30;17.40;;;5.93;;
66012;SDS011;52783;50.502;8.190;2023-09-12T06:26:56;25.92;;;6.28;;
66012;SDS011;52783;50.502;8.190;2023-09-12T06:29:22;22.58;;;6.13;;
66012;SDS011;52783;50.502;8.190;2023-09-12T06:31:47;24.92;;;6.10;;
66012;SDS011;52783;50.502;8.190;2023-09-12T06:34:13;20.20;;;6.05;;
66012;SDS011;52783;50.502;8.190;2023-09-12T06:36:39;20.95;;;6.50;;
66012;SDS011;52783;50.502;8.190;2023-09-12T06:39:06;19.58;;;6.32;;
66012;SDS011;52783;50.502;8.190;2023-09-12T06:41:32;20.98;;;5.88;;
66012;SDS011;52783;50.502;8.190;2023-09-12T06:43:57;26.25;;;6.55;;
66012;SDS011;52783;50.502;8.190;2023-09-12T06:46:23;22.85;;;6.65;;
66012;SDS011;52783;50.502;8.190;2023-09-12T06:48:50;24.05;;;6.07;;
66012;SDS011;52783;50.502;8.190;2023-09-12T06:51:15;22.00;;;6.18;;
66012;SDS011;52783;50.502;8.190;2023-09-12T06:53:41;16.17;;;5.70;;
66012;SDS011;52783;50.502;8.190;2023-09-12T06:56:07;16.65;;;6.15;;
66012;SDS011;52783;50.502;8.190;2023-09-12T06:58:33;21.27;;;6.07;;
66012;SDS011;52783;50.502;8.190;2023-09-12T07:01:02;16.92;;;5.70;;
66012;SDS011;52783;50.502;8.190;2023-09-12T07:03:29;23.65;;;5.93;;
66012;SDS011;52783;50.502;8.190;2023-09-12T07:05:55;18.95;;;6.13;;
66012;SDS011;52783;50.502;8.190;2023-09-12T07:08:20;14.20;;;5.05;;
66012;SDS011;52783;50.502;8.190;2023-09-12T07:10:46;23.63;;;6.22;;
66012;SDS011;52783;50.502;8.190;2023-09-12T07:13:11;19.77;;;5.15;;
66012;SDS011;52783;50.502;8.190;2023-09-12T07:15:37;21.65;;;6.20;;
66012;SDS011;52783;50.502;8.190;2023-09-12T07:18:03;17.42;;;5.45;;
66012;SDS011;52783;50.502;8.190;2023-09-12T07:20:31;20.73;;;5.10;;
66012;SDS011;52783;50.502;8.190;2023-09-12T07:22:57;22.77;;;5.63;;
66012;SDS011;52783;50.502;8.190;2023-09-12T07:25:23;23.10;;;5.90;;
66012;SDS011;52783;50.502;8.190;2023-09-12T07:27:49;25.00;;;5.90;;
66012;SDS011;52783;50.502;8.190;2023-09-12T07:30:15;23.70;;;5.82;;
66012;SDS011;52783;50.502;8.190;2023-09-12T07:32:41;18.10;;;5.28;;
66012;SDS011;52783;50.502;8.190;2023-09-12T07:35:06;16.27;;;5.45;;
66012;SDS011;52783;50.502;8.190;2023-09-12T07:37:32;14.68;;;5.40;;
66012;SDS011;52783;50.502;8.190;2023-09-12T07:39:58;14.63;;;5.13;;
66012;SDS011;52783;50.502;8.190;2023-09-12T07:42:23;22.38;;;5.63;;
66012;SDS011;52783;50.502;8.190;2023-09-12T07:44:49;26.73;;;5.93;;
66012;SDS011;52783;50.502;8.190;2023-09-12T07:47:15;28.13;;;5.15;;
66012;SDS011;52783;50.502;8.190;2023-09-12T07:49:41;23.35;;;5.95;;
66012;SDS011;52783;50.502;8.190;2023-09-12T07:52:06;20.63;;;5.88;;
66012;SDS011;52783;50.502;8.190;2023-09-12T07:54:32;16.27;;;5.78;;
66012;SDS011;52783;50.502;8.190;2023-09-12T07:56:58;21.85;;;5.88;;
66012;SDS011;52783;50.502;8.190;2023-09-12T07:59:24;17.25;;;5.32;;
66012;SDS011;52783;50.502;8.190;2023-09-12T08:01:49;14.75;;;5.05;;
66012;SDS011;52783;50.502;8.190;2023-09-12T08:04:16;19.55;;;5.22;;
66012;SDS011;52783;50.502;8.190;2023-09-12T08:06:41;21.05;;;5.22;;
66012;SDS011;52783;50.502;8.190;2023-09-12T08:09:07;21.92;;;5.85;;
66012;SDS011;52783;50.502;8.190;2023-09-12T08:11:35;17.40;;;5.35;;
66012;SDS011;52783;50.502;8.190;2023-09-12T08:14:00;14.27;;;4.88;;
66012;SDS011;52783;50.502;8.190;2023-09-12T08:16:26;20.48;;;5.30;;
66012;SDS011;52783;50.502;8.190;2023-09-12T08:18:51;23.30;;;5.45;;
66012;SDS011;52783;50.502;8.190;2023-09-12T08:21:17;20.17;;;5.43;;
66012;SDS011;52783;50.502;8.190;2023-09-12T08:23:42;17.63;;;5.93;;
66012;SDS011;52783;50.502;8.190;2023-09-12T08:26:10;22.75;;;5.65;;
66012;SDS011;52783;50.502;8.190;2023-09-12T08:28:35;24.23;;;5.88;;
66012;SDS011;52783;50.502;8.190;2023-09-12T08:31:01;19.27;;;5.85;;
66012;SDS011;52783;50.502;8.190;2023-09-12T08:33:26;19.30;;;5.75;;
66012;SDS011;52783;50.502;8.190;2023-09-12T08:35:52;19.17;;;5.95;;
66012;SDS011;52783;50.502;8.190;2023-09-12T08:38:17;24.08;;;5.35;;
66012;SDS011;52783;50.502;8.190;2023-09-12T08:40:50;21.95;;;5.20;;
66012;SDS011;52783;50.502;8.190;2023-09-12T08:43:16;17.65;;;5.85;;
66012;SDS011;52783;50.502;8.190;2023-09-12T08:45:42;26.65;;;5.72;;
66012;SDS011;52783;50.502;8.190;2023-09-12T08:48:11;19.45;;;5.30;;
66012;SDS011;52783;50.502;8.190;2023-09-12T08:50:37;20.30;;;5.18;;
66012;SDS011;52783;50.502;8.190;2023-09-12T08:53:03;14.95;;;5.25;;
66012;SDS011;52783;50.502;8.190;2023-09-12T08:55:30;22.00;;;5.90;;
66012;SDS011;52783;50.502;8.190;2023-09-12T08:57:58;19.17;;;5.75;;
66012;SDS011;52783;50.502;8.190;2023-09-12T09:00:24;21.30;;;5.80;;
66012;SDS011;52783;50.502;8.190;2023-09-12T09:02:52;23.55;;;5.15;;
66012;SDS011;52783;50.502;8.190;2023-09-12T09:05:17;22.63;;;5.60;;
66012;SDS011;52783;50.502;8.190;2023-09-12T09:07:45;14.48;;;5.03;;
66012;SDS011;52783;50.502;8.190;2023-09-12T09:10:14;17.50;;;5.57;;
66012;SDS011;52783;50.502;8.190;2023-09-12T09:12:42;15.88;;;4.90;;
66012;SDS011;52783;50.502;8.190;2023-09-12T09:15:21;27.63;;;5.90;;
66012;SDS011;52783;50.502;8.190;2023-09-12T09:17:48;20.00;;;5.55;;
66012;SDS011;52783;50.502;8.190;2023-09-12T09:20:30;23.60;;;5.15;;
66012;SDS011;52783;50.502;8.190;2023-09-12T09:23:06;19.75;;;5.45;;
66012;SDS011;52783;50.502;8.190;2023-09-12T09:25:36;28.98;;;5.35;;
66012;SDS011;52783;50.502;8.190;2023-09-12T09:28:19;17.85;;;5.53;;
66012;SDS011;52783;50.502;8.190;2023-09-12T09:30:46;17.88;;;5.68;;
66012;SDS011;52783;50.502;8.190;2023-09-12T09:33:14;23.65;;;5.30;;
66012;SDS011;52783;50.502;8.190;2023-09-12T09:35:45;13.30;;;5.13;;
66012;SDS011;52783;50.502;8.190;2023-09-12T09:38:12;14.30;;;4.60;;
66012;SDS011;52783;50.502;8.190;2023-09-12T09:40:41;19.25;;;5.30;;
66012;SDS011;52783;50.502;8.190;2023-09-12T09:43:07;16.35;;;4.75;;
66012;SDS011;52783;50.502;8.190;2023-09-12T09:45:33;20.73;;;5.20;;
66012;SDS011;52783;50.502;8.190;2023-09-12T09:48:09;25.08;;;6.05;;
66012;SDS011;52783;50.502;8.190;2023-09-12T09:50:35;17.95;;;4.80;;
66012;SDS011;52783;50.502;8.190;2023-09-12T09:53:02;19.00;;;5.32;;
66012;SDS011;52783;50.502;8.190;2023-09-12T09:55:29;20.33;;;5.20;;
66012;SDS011;52783;50.502;8.190;2023-09-12T09:57:55;20.73;;;5.57;;
66012;SDS011;52783;50.502;8.190;2023-09-12T10:00:21;18.88;;;5.13;;
66012;SDS011;52783;50.502;8.190;2023-09-12T10:02:48;19.48;;;5.45;;
66012;SDS011;52783;50.502;8.190;2023-09-12T10:05:16;24.25;;;5.55;;
66012;SDS011;52783;50.502;8.190;2023-09-12T10:07:42;16.15;;;5.10;;
66012;SDS011;52783;50.502;8.190;2023-09-12T10:10:09;23.05;;;5.47;;
66012;SDS011;52783;50.502;8.190;2023-09-12T10:12:36;23.75;;;5.75;;
66012;SDS011;52783;50.502;8.190;2023-09-12T10:15:08;20.88;;;5.90;;
66012;SDS011;52783;50.502;8.190;2023-09-12T10:17:36;27.90;;;6.20;;
66012;SDS011;52783;50.502;8.190;2023-09-12T10:20:04;26.30;;;5.40;;
66012;SDS011;52783;50.502;8.190;2023-09-12T10:22:38;19.88;;;5.80;;
66012;SDS011;52783;50.502;8.190;2023-09-12T10:27:34;17.02;;;5.30;;
66012;SDS011;52783;50.502;8.190;2023-09-12T10:30:00;20.80;;;5.30;;
66012;SDS011;52783;50.502;8.190;2023-09-12T10:32:27;19.45;;;5.40;;
66012;SDS011;52783;50.502;8.190;2023-09-12T10:34:55;16.73;;;5.28;;
66012;SDS011;52783;50.502;8.190;2023-09-12T10:37:24;15.27;;;5.20;;
66012;SDS011;52783;50.502;8.190;2023-09-12T10:39:54;25.73;;;5.60;;
66012;SDS011;52783;50.502;8.190;2023-09-12T10:42:21;14.18;;;5.35;;
66012;SDS011;52783;50.502;8.190;2023-09-12T10:44:48;21.48;;;5.80;;
66012;SDS011;52783;50.502;8.190;2023-09-12T10:47:15;23.25;;;5.78;;
66012;SDS011;52783;50.502;8.190;2023-09-12T10:49:43;16.00;;;5.28;;
66012;SDS011;52783;50.502;8.190;2023-09-12T10:52:09;15.13;;;5.65;;
66012;SDS011;52783;50.502;8.190;2023-09-12T10:54:38;16.83;;;5.00;;
66012;SDS011;52783;50.502;8.190;2023-09-12T10:57:09;19.25;;;5.35;;
66012;SDS011;52783;50.502;8.190;2023-09-12T11:02:36;29.75;;;6.15;;
66012;SDS011;52783;50.502;8.190;2023-09-12T11:05:03;22.38;;;5.50;;
66012;SDS011;52783;50.502;8.190;2023-09-12T11:07:55;15.95;;;5.35;;
66012;SDS011;52783;50.502;8.190;2023-09-12T11:10:22;21.88;;;6.20;;
66012;SDS011;52783;50.502;8.190;2023-09-12T11:12:50;18.05;;;5.65;;
66012;SDS011;52783;50.502;8.190;2023-09-12T11:15:26;17.42;;;5.93;;
66012;SDS011;52783;50.502;8.190;2023-09-12T11:18:00;14.57;;;5.30;;
66012;SDS011;52783;50.502;8.190;2023-09-12T11:20:48;21.35;;;5.40;;
66012;SDS011;52783;50.502;8.190;2023-09-12T11:23:14;13.93;;;5.30;;
66012;SDS011;52783;50.502;8.190;2023-09-12T11:25:40;16.90;;;5.25;;
66012;SDS011;52783;50.502;8.190;2023-09-12T11:28:05;22.30;;;5.78;;
66012;SDS011;52783;50.502;8.190;2023-09-12T11:30:31;21.58;;;5.45;;
66012;SDS011;52783;50.502;8.190;2023-09-12T11:32:56;25.98;;;5.93;;
66012;SDS011;52783;50.502;8.190;2023-09-12T11:35:27;16.13;;;5.30;;
66012;SDS011;52783;50.502;8.190;2023-09-12T11:37:54;21.70;;;5.25;;
66012;SDS011;52783;50.502;8.190;2023-09-12T11:40:25;24.80;;;5.90;;
66012;SDS011;52783;50.502;8.190;2023-09-12T11:42:57;11.90;;;5.07;;
66012;SDS011;52783;50.502;8.190;2023-09-12T11:45:23;14.18;;;4.93;;
66012;SDS011;52783;50.502;8.190;2023-09-12T11:47:49;23.77;;;6.28;;
66012;SDS011;52783;50.502;8.190;2023-09-12T11:53:05;20.52;;;5.72;;
66012;SDS011;52783;50.502;8.190;2023-09-12T11:55:54;17.35;;;5.47;;
66012;SDS011;52783;50.502;8.190;2023-09-12T11:58:20;13.18;;;5.55;;
66012;SDS011;52783;50.502;8.190;2023-09-12T12:00:53;15.43;;;4.88;;
66012;SDS011;52783;50.502;8.190;2023-09-12T12:03:20;17.33;;;6.15;;
66012;SDS011;52783;50.502;8.190;2023-09-12T12:05:48;16.15;;;5.10;;
66012;SDS011;52783;50.502;8.190;2023-09-12T12:08:15;22.25;;;5.20;;
66012;SDS011;52783;50.502;8.190;2023-09-12T12:10:42;15.25;;;5.55;;
66012;SDS011;52783;50.502;8.190;2023-09-12T12:13:11;16.70;;;5.45;;
66012;SDS011;52783;50.502;8.190;2023-09-12T12:15:37;13.07;;;5.40;;
66012;SDS011;52783;50.502;8.190;2023-09-12T12:18:03;18.77;;;5.88;;
66012;SDS011;52783;50.502;8.190;2023-09-12T12:20:29;16.15;;;5.28;;
66012;SDS011;52783;50.502;8.190;2023-09-12T12:22:55;22.05;;;6.68;;
66012;SDS011;52783;50.502;8.190;2023-09-12T12:25:21;14.77;;;5.68;;
66012;SDS011;52783;50.502;8.190;2023-09-12T12:27:47;20.55;;;5.35;;
66012;SDS011;52783;50.502;8.190;2023-09-12T12:30:13;18.58;;;5.80;;
66012;SDS011;52783;50.502;8.190;2023-09-12T12:32:42;20.30;;;5.25;;
66012;SDS011;52783;50.502;8.190;2023-09-12T12:35:16;17.98;;;4.72;;
66012;SDS011;52783;50.502;8.190;2023-09-12T12:37:43;22.77;;;5.75;;
66012;SDS011;52783;50.502;8.190;2023-09-12T12:40:11;18.60;;;5.88;;
66012;SDS011;52783;50.502;8.190;2023-09-12T12:42:38;22.30;;;5.72;;
66012;SDS011;52783;50.502;8.190;2023-09-12T12:45:10;20.33;;;5.65;;
66012;SDS011;52783;50.502;8.190;2023-09-12T12:48:02;17.40;;;5.55;;
66012;SDS011;52783;50.502;8.190;2023-09-12T12:50:29;19.95;;;6.10;;
66012;SDS011;52783;50.502;8.190;2023-09-12T12:52:54;17.38;;;5.50;;
66012;SDS011;52783;50.502;8.190;2023-09-12T12:55:20;18.27;;;5.50;;
66012;SDS011;52783;50.502;8.190;2023-09-12T12:57:47;16.05;;;6.03;;
66012;SDS011;52783;50.502;8.190;2023-09-12T13:00:16;22.67;;;6.55;;
66012;SDS011;52783;50.502;8.190;2023-09-12T13:02:43;25.35;;;6.20;;
66012;SDS011;52783;50.502;8.190;2023-09-12T13:05:26;21.58;;;5.72;;
66012;SDS011;52783;50.502;8.190;2023-09-12T13:07:54;21.05;;;5.65;;
66012;SDS011;52783;50.502;8.190;2023-09-12T13:10:20;20.90;;;6.25;;
66012;SDS011;52783;50.502;8.190;2023-09-12T13:12:46;20.92;;;6.38;;
66012;SDS011;52783;50.502;8.190;2023-09-12T13:15:12;19.73;;;5.82;;
66012;SDS011;52783;50.502;8.190;2023-09-12T13:17:38;20.60;;;6.03;;
66012;SDS011;52783;50.502;8.190;2023-09-12T13:20:05;20.40;;;5.85;;
66012;SDS011;52783;50.502;8.190;2023-09-12T13:22:33;21.83;;;5.80;;
66012;SDS011;52783;50.502;8.190;2023-09-12T13:24:59;30.80;;;6.32;;
66012;SDS011;52783;50.502;8.190;2023-09-12T13:27:24;21.20;;;6.00;;
66012;SDS011;52783;50.502;8.190;2023-09-12T13:29:50;28.88;;;5.75;;
66012;SDS011;52783;50.502;8.190;2023-09-12T13:32:15;19.58;;;6.55;;
66012;SDS011;52783;50.502;8.190;2023-09-12T13:34:43;20.92;;;6.53;;
66012;SDS011;52783;50.502;8.190;2023-09-12T13:37:09;18.63;;;5.53;;
66012;SDS011;52783;50.502;8.190;2023-09-12T13:39:34;21.23;;;6.13;;
66012;SDS011;52783;50.502;8.190;2023-09-12T13:42:00;24.60;;;6.50;;
66012;SDS011;52783;50.502;8.190;2023-09-12T13:44:28;18.00;;;6.53;;
66012;SDS011;52783;50.502;8.190;2023-09-12T13:46:53;23.73;;;6.57;;
66012;SDS011;52783;50.502;8.190;2023-09-12T13:49:19;18.60;;;6.65;;
66012;SDS011;52783;50.502;8.190;2023-09-12T13:51:44;17.25;;;6.35;;
66012;SDS011;52783;50.502;8.190;2023-09-12T13:54:10;22.73;;;6.68;;
66012;SDS011;52783;50.502;8.190;2023-09-12T13:56:40;25.65;;;7.15;;
66012;SDS011;52783;50.502;8.190;2023-09-12T13:59:06;22.90;;;7.25;;
66012;SDS011;52783;50.502;8.190;2023-09-12T14:01:31;27.13;;;7.13;;
66012;SDS011;52783;50.502;8.190;2023-09-12T14:03:57;19.40;;;6.68;;
66012;SDS011;52783;50.502;8.190;2023-09-12T14:06:23;18.75;;;6.38;;
66012;SDS011;52783;50.502;8.190;2023-09-12T14:08:48;18.55;;;6.10;;
66012;SDS011;52783;50.502;8.190;2023-09-12T14:11:14;21.70;;;7.07;;
66012;SDS011;52783;50.502;8.190;2023-09-12T14:13:39;14.43;;;5.93;;
66012;SDS011;52783;50.502;8.190;2023-09-12T14:16:05;18.08;;;6.53;;
66012;SDS011;52783;50.502;8.190;2023-09-12T14:18:30;18.05;;;7.15;;
66012;SDS011;52783;50.502;8.190;2023-09-12T14:20:56;22.38;;;7.20;;
66012;SDS011;52783;50.502;8.190;2023-09-12T14:23:22;27.42;;;7.13;;
66012;SDS011;52783;50.502;8.190;2023-09-12T14:25:47;19.27;;;7.30;;
66012;SDS011;52783;50.502;8.190;2023-09-12T14:28:13;20.58;;;7.70;;
66012;SDS011;52783;50.502;8.190;2023-09-12T14:30:39;19.00;;;7.07;;
66012;SDS011;52783;50.502;8.190;2023-09-12T14:33:09;20.88;;;7.80;;
66012;SDS011;52783;50.502;8.190;2023-09-12T14:35:34;20.60;;;8.35;;
66012;SDS011;52783;50.502;8.190;2023-09-12T14:38:01;21.08;;;6.85;;
66012;SDS011;52783;50.502;8.190;2023-09-12T14:40:27;19.10;;;8.20;;
66012;SDS011;52783;50.502;8.190;2023-09-12T14:42:52;23.13;;;9.00;;